createdAt,value
2022-08-23T00:01:25.063Z,46.00
2022-08-23T00:03:55.630Z,46.50
2022-08-23T00:06:24.997Z,46.70
2022-08-23T00:08:54.166Z,46.80
2022-08-23T00:11:28.074Z,47.20
2022-08-23T00:16:26.390Z,47.00
2022-08-23T00:21:23.739Z,46.80
2022-08-23T00:33:47.448Z,64.60
2022-08-23T00:44:00.920Z,45.90
2022-08-23T00:47:04.324Z,45.80
2022-08-23T00:49:36.158Z,46.00
2022-08-23T00:52:09.994Z,69.00
2022-08-23T00:54:41.254Z,45.60
2022-08-23T00:57:15.509Z,44.90
2022-08-23T01:04:47.309Z,45.10
2022-08-23T01:07:22.392Z,45.50
2022-08-23T01:09:52.528Z,45.80
2022-08-23T01:12:32.968Z,46.00
2022-08-23T01:15:06.671Z,45.30
2022-08-23T01:17:39.928Z,64.80
2022-08-23T01:20:13.822Z,45.20
2022-08-23T01:22:47.637Z,45.60
2022-08-23T01:25:21.485Z,45.80
2022-08-23T01:27:51.175Z,46.30
2022-08-23T01:30:21.877Z,46.40
2022-08-23T01:32:53.328Z,46.60
2022-08-23T01:35:28.142Z,46.70
2022-08-23T01:40:27.482Z,47.00
2022-08-23T01:45:24.543Z,68.10
2022-08-23T01:50:22.425Z,47.70
2022-08-23T01:57:56.885Z,48.60
2022-08-23T02:00:29.003Z,49.00
2022-08-23T02:05:26.682Z,49.70
2022-08-23T02:12:53.914Z,50.20
2022-08-23T02:25:21.321Z,72.20
2022-08-23T02:30:19.620Z,51.60
2022-08-23T02:47:48.275Z,51.50
2022-08-23T02:50:27.767Z,75.10
2022-08-23T02:52:58.500Z,51.70
2022-08-23T02:55:27.848Z,65.20
2022-08-23T03:00:25.411Z,51.90
2022-08-23T03:02:55.099Z,51.80
2022-08-23T03:20:22.797Z,51.20
2022-08-23T03:35:46.153Z,52.00
2022-08-23T03:38:15.351Z,72.30
2022-08-23T03:40:45.775Z,52.40
2022-08-23T03:53:12.190Z,52.20
2022-08-23T03:55:43.071Z,52.80
2022-08-23T04:05:56.669Z,61.90
2022-08-23T04:08:33.561Z,53.20
2022-08-23T04:11:03.245Z,73.50
2022-08-23T04:16:05.003Z,53.70
2022-08-23T04:18:34.715Z,53.70
2022-08-23T04:21:06.189Z,54.20
2022-08-23T04:23:35.996Z,54.50
2022-08-23T04:31:07.100Z,54.90
2022-08-23T04:38:40.912Z,55.70
2022-08-23T04:53:59.376Z,56.30
2022-08-23T05:09:25.130Z,55.60
2022-08-23T05:16:52.322Z,80.00
2022-08-23T05:19:21.518Z,77.50
2022-08-23T05:24:28.565Z,55.90
2022-08-23T05:39:36.928Z,56.00
2022-08-23T05:42:08.685Z,56.10
2022-08-23T05:47:11.159Z,56.00
2022-08-23T05:54:46.613Z,55.80
2022-08-23T05:57:35.630Z,56.00
2022-08-23T06:00:05.735Z,66.30
2022-08-23T06:10:03.142Z,61.50
2022-08-23T06:17:31.989Z,75.90
2022-08-23T06:25:09.780Z,55.50
2022-08-23T06:30:40.121Z,55.80
2022-08-23T06:36:26.066Z,79.40
2022-08-23T06:39:15.624Z,55.20
2022-08-23T06:42:40.004Z,55.00
2022-08-23T06:45:10.632Z,75.60
2022-08-23T06:50:11.391Z,55.00
2022-08-23T06:58:39.669Z,55.00
2022-08-23T07:01:44.098Z,54.60
2022-08-23T07:04:21.221Z,54.90
2022-08-23T07:07:11.788Z,54.50
2022-08-23T07:09:41.149Z,68.40
2022-08-23T07:14:44.279Z,55.20
2022-08-23T07:30:45.162Z,69.10
2022-08-23T07:36:06.914Z,74.10
2022-08-23T07:43:34.303Z,73.40
2022-08-23T07:46:04.848Z,54.80
2022-08-23T07:48:52.959Z,54.10
2022-08-23T08:01:54.145Z,52.40
2022-08-23T08:17:18.245Z,51.00
2022-08-23T08:20:06.686Z,50.70
2022-08-23T08:22:56.410Z,51.00
2022-08-23T08:28:18.464Z,68.40
2022-08-23T08:33:17.817Z,50.10
2022-08-23T08:35:57.590Z,49.70
2022-08-23T08:41:07.000Z,48.70
2022-08-23T08:44:00.371Z,47.60
2022-08-23T08:46:39.924Z,65.00
2022-08-23T08:49:15.834Z,46.60
2022-08-23T08:51:50.381Z,45.90
2022-08-23T08:54:23.823Z,44.80
2022-08-23T08:56:55.272Z,44.00
2022-08-23T08:59:31.788Z,43.90
2022-08-23T09:04:37.377Z,46.40
2022-08-23T09:07:13.590Z,42.00
2022-08-23T09:09:58.807Z,63.80
2022-08-23T09:12:34.856Z,41.20
2022-08-23T09:15:23.974Z,40.60
2022-08-23T09:17:57.950Z,39.50
2022-08-23T09:20:33.162Z,39.20
2022-08-23T09:23:10.157Z,38.00
2022-08-23T09:25:40.580Z,38.60
2022-08-23T09:28:16.920Z,54.30
2022-08-23T09:30:49.589Z,37.40
2022-08-23T09:33:20.467Z,37.50
2022-08-23T09:36:14.977Z,54.50
2022-08-23T09:38:53.845Z,50.90
2022-08-23T09:41:27.741Z,34.30
2022-08-23T09:44:01.808Z,54.80
2022-08-23T09:46:34.197Z,34.60
2022-08-23T09:49:24.304Z,33.50
2022-08-23T09:51:57.791Z,33.50
2022-08-23T09:54:31.189Z,33.40
2022-08-23T09:57:03.243Z,32.70
2022-08-23T09:59:39.573Z,32.40
2022-08-23T10:02:24.154Z,31.90
2022-08-23T10:05:00.665Z,31.80
2022-08-23T10:07:38.450Z,30.60
2022-08-23T10:10:19.526Z,30.70
2022-08-23T10:15:18.664Z,30.30
2022-08-23T10:17:55.279Z,44.60
2022-08-23T10:20:34.969Z,29.90
2022-08-23T10:23:18.004Z,29.90
2022-08-23T10:25:56.092Z,30.70
2022-08-23T10:28:53.607Z,29.60
2022-08-23T10:31:34.351Z,28.90
2022-08-23T10:34:15.865Z,27.50
2022-08-23T10:36:56.463Z,27.90
2022-08-23T10:39:28.962Z,25.50
2022-08-23T10:42:07.732Z,26.10
2022-08-23T10:44:43.243Z,26.60
2022-08-23T10:47:22.050Z,26.90
2022-08-23T10:49:53.695Z,38.10
2022-08-23T10:52:30.502Z,38.30
2022-08-23T10:55:06.462Z,40.20
2022-08-23T10:57:41.153Z,26.70
2022-08-23T11:00:13.723Z,28.10
2022-08-23T11:02:49.700Z,27.80
2022-08-23T11:05:31.704Z,27.90
2022-08-23T11:08:06.043Z,40.40
2022-08-23T11:10:56.375Z,28.10
2022-08-23T11:13:35.025Z,28.00
2022-08-23T11:16:11.395Z,27.80
2022-08-23T11:18:44.258Z,40.40
2022-08-23T11:21:44.693Z,32.90
2022-08-23T11:24:34.288Z,27.10
2022-08-23T11:27:07.943Z,39.10
2022-08-23T11:29:44.293Z,39.30
2022-08-23T11:32:44.211Z,39.10
2022-08-23T11:35:36.904Z,37.20
2022-08-23T11:38:12.668Z,29.30
2022-08-23T11:41:22.521Z,26.30
2022-08-23T11:44:22.919Z,26.30
2022-08-23T11:47:03.537Z,26.40
2022-08-23T11:50:02.667Z,37.70
2022-08-23T11:52:53.319Z,37.20
2022-08-23T11:55:31.035Z,25.30
2022-08-23T11:58:17.696Z,24.60
2022-08-23T12:01:07.611Z,34.90
2022-08-23T12:03:44.627Z,25.70
2022-08-23T12:06:40.458Z,25.50
2022-08-23T12:09:14.697Z,37.10
2022-08-23T12:12:12.794Z,25.50
2022-08-23T12:14:54.796Z,25.10
2022-08-23T12:18:12.329Z,36.10
2022-08-23T12:20:48.363Z,24.80
2022-08-23T12:23:22.223Z,34.80
2022-08-23T12:26:01.764Z,34.40
2022-08-23T12:28:49.845Z,34.40
2022-08-23T12:31:26.247Z,33.70
2022-08-23T12:34:11.336Z,24.60
2022-08-23T12:36:50.172Z,25.20
2022-08-23T12:39:26.492Z,23.30
2022-08-23T12:41:59.049Z,23.90
2022-08-23T12:44:28.881Z,23.80
2022-08-23T12:46:58.538Z,33.80
2022-08-23T12:49:30.363Z,33.70
2022-08-23T12:52:03.850Z,23.50
2022-08-23T12:54:38.692Z,34.30
2022-08-23T12:57:11.909Z,24.40
2022-08-23T12:59:50.355Z,24.50
2022-08-23T13:02:25.438Z,24.80
2022-08-23T13:04:58.016Z,34.70
2022-08-23T13:07:27.907Z,24.60
2022-08-23T13:09:56.792Z,36.20
2022-08-23T13:12:25.102Z,37.80
2022-08-23T13:14:55.699Z,26.10
2022-08-23T13:17:32.943Z,36.90
2022-08-23T13:20:21.883Z,37.40
2022-08-23T13:23:00.524Z,37.00
2022-08-23T13:25:32.743Z,36.40
2022-08-23T13:28:03.398Z,26.60
2022-08-23T13:30:33.660Z,36.90
2022-08-23T13:33:22.381Z,35.10
2022-08-23T13:35:51.511Z,35.90
2022-08-23T13:38:24.627Z,36.10
2022-08-23T13:41:00.119Z,35.50
2022-08-23T13:43:33.758Z,25.60
2022-08-23T13:46:13.100Z,37.90
2022-08-23T13:48:49.803Z,25.90
2022-08-23T13:51:26.173Z,37.70
2022-08-23T13:53:57.238Z,38.50
2022-08-23T13:56:26.320Z,26.60
2022-08-23T13:58:57.416Z,26.90
2022-08-23T14:01:26.276Z,38.80
2022-08-23T14:03:54.709Z,41.10
2022-08-23T14:06:23.907Z,38.10
2022-08-23T14:08:52.158Z,37.90
2022-08-23T14:11:21.895Z,38.30
2022-08-23T14:13:51.093Z,38.80
2022-08-23T14:16:33.497Z,38.30
2022-08-23T14:24:21.545Z,37.40
2022-08-23T14:26:52.436Z,37.60
2022-08-23T14:29:21.479Z,38.30
2022-08-23T14:39:36.261Z,39.20
2022-08-23T14:42:06.689Z,39.70
2022-08-23T14:44:36.241Z,40.10
2022-08-23T14:47:05.671Z,27.70
2022-08-23T14:49:34.176Z,38.80
2022-08-23T14:54:31.447Z,40.30
2022-08-23T14:56:59.714Z,40.20
2022-08-23T14:59:29.263Z,40.30
2022-08-23T15:01:58.484Z,39.30
2022-08-23T15:04:32.387Z,39.40
2022-08-23T15:07:19.445Z,39.30
2022-08-23T15:09:49.114Z,39.90
2022-08-23T15:15:12.227Z,40.60
2022-08-23T15:17:47.838Z,39.50
2022-08-23T15:22:45.259Z,41.00
2022-08-23T15:25:25.327Z,38.70
2022-08-23T15:27:54.041Z,38.50
2022-08-23T15:30:24.363Z,27.60
2022-08-23T15:32:56.579Z,40.40
2022-08-23T15:35:25.762Z,41.50
2022-08-23T15:37:54.740Z,40.90
2022-08-23T15:40:23.399Z,41.40
2022-08-23T15:45:20.164Z,33.80
2022-08-23T15:47:52.698Z,42.20
2022-08-23T15:50:22.798Z,42.40
2022-08-23T15:52:51.045Z,42.70
2022-08-23T15:55:20.496Z,41.60
2022-08-23T15:57:51.327Z,42.80
2022-08-23T16:00:23.345Z,43.30
2022-08-23T16:03:19.006Z,42.50
2022-08-23T16:05:43.442Z,42.70
2022-08-23T16:08:17.513Z,42.30
2022-08-23T16:10:45.730Z,41.90
2022-08-23T16:13:14.024Z,43.00
2022-08-23T16:15:42.073Z,42.00
2022-08-23T16:18:11.720Z,28.70
2022-08-23T16:20:39.841Z,30.90
2022-08-23T16:28:07.311Z,32.80
2022-08-23T16:33:04.506Z,40.10
2022-08-23T16:35:33.947Z,27.80
2022-08-23T16:38:02.269Z,39.40
2022-08-23T16:40:30.491Z,41.30
2022-08-23T16:45:27.448Z,40.10
2022-08-23T16:47:55.725Z,41.10
2022-08-23T16:52:53.740Z,26.60
2022-08-23T16:57:51.219Z,25.30
2022-08-23T17:02:47.888Z,38.00
2022-08-23T17:05:18.954Z,37.90
2022-08-23T17:10:19.054Z,24.90
2022-08-23T17:12:49.697Z,24.80
2022-08-23T17:15:20.745Z,24.70
2022-08-23T17:17:49.165Z,38.20
2022-08-23T17:20:17.825Z,37.10
2022-08-23T17:25:26.245Z,38.50
2022-08-23T17:27:56.163Z,24.90
2022-08-23T17:30:26.311Z,25.00
2022-08-23T17:32:55.053Z,24.90
2022-08-23T17:35:26.006Z,25.20
2022-08-23T17:37:55.042Z,39.10
2022-08-23T17:40:28.976Z,25.10
2022-08-23T17:43:00.251Z,25.40
2022-08-23T17:57:56.360Z,25.50
2022-08-23T18:00:32.329Z,38.70
2022-08-23T18:05:33.206Z,26.00
2022-08-23T18:10:30.998Z,26.00
2022-08-23T18:13:00.699Z,39.60
2022-08-23T18:18:00.766Z,39.90
2022-08-23T18:20:30.117Z,26.20
2022-08-23T18:23:00.284Z,26.40
2022-08-23T18:30:46.950Z,26.80
2022-08-23T18:33:16.454Z,27.00
2022-08-23T18:35:47.534Z,27.50
2022-08-23T18:38:16.008Z,41.60
2022-08-23T18:40:46.408Z,27.50
2022-08-23T18:43:16.932Z,27.70
2022-08-23T18:45:48.087Z,27.70
2022-08-23T18:53:15.152Z,28.40
2022-08-23T18:58:12.573Z,28.60
2022-08-23T19:00:41.808Z,43.20
2022-08-23T19:03:12.420Z,28.80
2022-08-23T19:05:42.708Z,43.70
2022-08-23T19:08:12.809Z,29.20
2022-08-23T19:10:42.508Z,29.30
2022-08-23T19:15:40.494Z,29.70
2022-08-23T19:18:09.149Z,44.70
2022-08-23T19:20:39.255Z,29.70
2022-08-23T19:23:09.461Z,30.10
2022-08-23T19:28:07.552Z,30.60
2022-08-23T19:30:36.522Z,46.00
2022-08-23T19:38:03.962Z,31.50
2022-08-23T19:40:33.922Z,48.00
2022-08-23T19:55:34.185Z,49.40
2022-08-23T20:05:30.230Z,33.70
2022-08-23T20:12:57.438Z,34.20
2022-08-23T20:28:08.386Z,34.50
2022-08-23T20:30:37.562Z,51.20
2022-08-23T20:38:04.459Z,54.10
2022-08-23T20:43:01.528Z,54.00
2022-08-23T20:45:32.783Z,37.30
2022-08-23T21:02:53.455Z,38.40
2022-08-23T21:20:17.774Z,40.40
2022-08-23T21:30:12.500Z,58.50
2022-08-23T21:35:10.739Z,59.60
2022-08-23T21:37:40.416Z,41.20
2022-08-23T21:40:09.817Z,42.00
2022-08-23T21:45:08.530Z,42.00
2022-08-23T21:50:06.097Z,43.60
2022-08-23T21:55:04.498Z,42.40
2022-08-23T22:00:06.879Z,43.40
2022-08-23T22:10:11.051Z,43.80
2022-08-23T22:12:40.108Z,66.90
2022-08-23T22:15:09.583Z,44.20
2022-08-23T22:25:08.797Z,63.60
2022-08-23T22:30:06.339Z,45.00
2022-08-23T22:42:30.154Z,45.80
2022-08-23T22:59:52.197Z,47.10
2022-08-23T23:10:06.867Z,48.70
2022-08-23T23:15:05.380Z,49.00
2022-08-23T23:30:15.503Z,49.80
2022-08-23T23:40:10.794Z,69.30
2022-08-23T23:45:08.989Z,50.00
2022-08-23T23:47:38.597Z,49.90
2022-08-23T23:50:07.525Z,50.30
2022-08-23T23:52:37.365Z,50.60
